sensor_id;sensor_type;location;lat;lon;timestamp;pressure;altitude;pressure_sealevel;temperature;humidity
60019;BME280;45870;42.528;26.740;2022-07-24T00:01:36;99695.78;;;26.13;50.32
60019;BME280;45870;42.528;26.740;2022-07-24T00:04:03;99692.31;;;25.75;50.95
60019;BME280;45870;42.528;26.740;2022-07-24T00:06:29;99673.06;;;25.58;50.80
60019;BME280;45870;42.528;26.740;2022-07-24T00:08:55;99652.00;;;25.36;50.47
60019;BME280;45870;42.528;26.740;2022-07-24T00:11:21;99690.41;;;25.20;51.13
60019;BME280;45870;42.528;26.740;2022-07-24T00:13:47;99680.41;;;25.07;51.57
60019;BME280;45870;42.528;26.740;2022-07-24T00:16:12;99640.34;;;24.75;51.88
60019;BME280;45870;42.528;26.740;2022-07-24T00:18:38;99683.41;;;24.42;52.92
60019;BME280;45870;42.528;26.740;2022-07-24T00:21:04;99683.09;;;24.52;52.82
60019;BME280;45870;42.528;26.740;2022-07-24T00:23:32;99630.50;;;23.97;53.93
60019;BME280;45870;42.528;26.740;2022-07-24T00:25:58;99681.31;;;24.48;53.57
60019;BME280;45870;42.528;26.740;2022-07-24T00:28:24;99682.31;;;24.34;54.21
60019;BME280;45870;42.528;26.740;2022-07-24T00:30:50;99677.50;;;24.78;52.74
60019;BME280;45870;42.528;26.740;2022-07-24T00:33:16;99680.72;;;23.60;57.85
60019;BME280;45870;42.528;26.740;2022-07-24T00:35:42;99653.34;;;23.24;59.28
60019;BME280;45870;42.528;26.740;2022-07-24T00:38:09;99678.22;;;24.06;58.39
60019;BME280;45870;42.528;26.740;2022-07-24T00:40:35;99620.94;;;23.29;58.96
60019;BME280;45870;42.528;26.740;2022-07-24T00:43:01;99609.53;;;24.56;55.90
60019;BME280;45870;42.528;26.740;2022-07-24T00:45:27;99670.38;;;25.32;53.90
60019;BME280;45870;42.528;26.740;2022-07-24T00:47:53;99656.47;;;25.49;53.56
60019;BME280;45870;42.528;26.740;2022-07-24T00:50:19;99667.97;;;25.68;52.31
60019;BME280;45870;42.528;26.740;2022-07-24T00:52:45;99658.91;;;25.21;53.13
60019;BME280;45870;42.528;26.740;2022-07-24T00:55:11;99669.56;;;25.69;52.01
60019;BME280;45870;42.528;26.740;2022-07-24T00:57:38;99665.09;;;25.56;51.84
60019;BME280;45870;42.528;26.740;2022-07-24T01:00:08;99563.53;;;24.86;51.73
60019;BME280;45870;42.528;26.740;2022-07-24T01:02:34;99672.53;;;25.64;51.74
60019;BME280;45870;42.528;26.740;2022-07-24T01:05:00;99656.88;;;24.93;53.96
60019;BME280;45870;42.528;26.740;2022-07-24T01:07:26;99615.47;;;24.93;53.52
60019;BME280;45870;42.528;26.740;2022-07-24T01:09:52;99653.72;;;25.49;52.65
60019;BME280;45870;42.528;26.740;2022-07-24T01:12:18;99648.13;;;25.66;51.76
60019;BME280;45870;42.528;26.740;2022-07-24T01:14:44;99651.72;;;25.58;52.12
60019;BME280;45870;42.528;26.740;2022-07-24T01:17:10;99653.03;;;25.61;52.30
60019;BME280;45870;42.528;26.740;2022-07-24T01:19:36;99656.22;;;25.71;51.48
60019;BME280;45870;42.528;26.740;2022-07-24T01:22:03;99632.59;;;25.53;51.66
60019;BME280;45870;42.528;26.740;2022-07-24T01:24:30;99650.00;;;25.45;52.07
60019;BME280;45870;42.528;26.740;2022-07-24T01:26:56;99650.22;;;25.40;52.28
60019;BME280;45870;42.528;26.740;2022-07-24T01:29:22;99625.84;;;25.33;51.61
60019;BME280;45870;42.528;26.740;2022-07-24T01:31:47;99645.53;;;25.32;52.36
60019;BME280;45870;42.528;26.740;2022-07-24T01:34:13;99641.78;;;25.37;51.93
60019;BME280;45870;42.528;26.740;2022-07-24T01:36:39;99646.66;;;25.31;52.14
60019;BME280;45870;42.528;26.740;2022-07-24T01:39:05;99640.47;;;25.34;51.72
60019;BME280;45870;42.528;26.740;2022-07-24T01:41:31;99630.28;;;25.26;51.96
60019;BME280;45870;42.528;26.740;2022-07-24T01:43:56;99631.56;;;25.28;51.76
60019;BME280;45870;42.528;26.740;2022-07-24T01:46:22;99631.31;;;25.42;51.42
60019;BME280;45870;42.528;26.740;2022-07-24T01:48:48;99626.03;;;25.28;51.88
60019;BME280;45870;42.528;26.740;2022-07-24T01:51:14;99627.28;;;25.40;51.55
60019;BME280;45870;42.528;26.740;2022-07-24T01:53:40;99593.78;;;25.41;50.90
60019;BME280;45870;42.528;26.740;2022-07-24T01:56:06;99616.84;;;25.45;50.84
60019;BME280;45870;42.528;26.740;2022-07-24T01:58:32;99629.16;;;25.48;50.63
60019;BME280;45870;42.528;26.740;2022-07-24T02:00:57;99633.19;;;25.29;50.95
60019;BME280;45870;42.528;26.740;2022-07-24T02:03:23;99627.88;;;25.16;51.34
60019;BME280;45870;42.528;26.740;2022-07-24T02:05:49;99616.38;;;25.05;51.12
60019;BME280;45870;42.528;26.740;2022-07-24T02:08:14;99636.00;;;25.12;50.96
60019;BME280;45870;42.528;26.740;2022-07-24T02:10:40;99637.97;;;25.12;51.00
60019;BME280;45870;42.528;26.740;2022-07-24T02:13:06;99579.47;;;24.72;50.94
60019;BME280;45870;42.528;26.740;2022-07-24T02:15:32;99626.97;;;25.03;51.19
60019;BME280;45870;42.528;26.740;2022-07-24T02:18:00;99621.31;;;24.91;51.39
60019;BME280;45870;42.528;26.740;2022-07-24T02:20:30;99632.78;;;25.10;51.06
60019;BME280;45870;42.528;26.740;2022-07-24T02:22:56;99634.78;;;25.01;50.94
60019;BME280;45870;42.528;26.740;2022-07-24T02:25:21;99627.66;;;24.92;51.29
60019;BME280;45870;42.528;26.740;2022-07-24T02:27:48;99630.91;;;24.94;51.06
60019;BME280;45870;42.528;26.740;2022-07-24T02:30:18;99624.81;;;25.09;50.46
60019;BME280;45870;42.528;26.740;2022-07-24T02:32:44;99629.25;;;25.01;50.67
60019;BME280;45870;42.528;26.740;2022-07-24T02:35:10;99631.75;;;24.85;50.93
60019;BME280;45870;42.528;26.740;2022-07-24T02:37:41;99628.66;;;24.87;51.03
60019;BME280;45870;42.528;26.740;2022-07-24T02:40:08;99586.09;;;24.79;50.54
60019;BME280;45870;42.528;26.740;2022-07-24T02:42:35;99632.03;;;25.01;50.37
60019;BME280;45870;42.528;26.740;2022-07-24T02:45:01;99622.13;;;24.92;50.90
60019;BME280;45870;42.528;26.740;2022-07-24T02:47:27;99626.38;;;24.80;50.72
60019;BME280;45870;42.528;26.740;2022-07-24T02:49:53;99613.56;;;24.67;50.77
60019;BME280;45870;42.528;26.740;2022-07-24T02:52:18;99623.78;;;24.84;50.53
60019;BME280;45870;42.528;26.740;2022-07-24T02:54:44;99621.19;;;24.79;50.38
60019;BME280;45870;42.528;26.740;2022-07-24T02:57:10;99599.44;;;24.69;50.17
60019;BME280;45870;42.528;26.740;2022-07-24T02:59:35;99623.75;;;24.93;50.07
60019;BME280;45870;42.528;26.740;2022-07-24T03:02:01;99612.91;;;24.79;49.82
60019;BME280;45870;42.528;26.740;2022-07-24T03:04:27;99618.25;;;24.84;49.49
60019;BME280;45870;42.528;26.740;2022-07-24T03:06:53;99625.38;;;24.94;49.18
60019;BME280;45870;42.528;26.740;2022-07-24T03:09:19;99621.81;;;24.93;49.35
60019;BME280;45870;42.528;26.740;2022-07-24T03:11:44;99568.59;;;24.67;49.00
60019;BME280;45870;42.528;26.740;2022-07-24T03:14:10;99610.97;;;25.17;48.92
60019;BME280;45870;42.528;26.740;2022-07-24T03:16:36;99620.28;;;25.42;49.43
60019;BME280;45870;42.528;26.740;2022-07-24T03:19:02;99623.31;;;25.99;47.75
60019;BME280;45870;42.528;26.740;2022-07-24T03:21:28;99615.06;;;26.32;47.42
60019;BME280;45870;42.528;26.740;2022-07-24T03:23:54;99610.66;;;26.85;46.27
60019;BME280;45870;42.528;26.740;2022-07-24T03:26:21;99612.50;;;27.41;45.09
60019;BME280;45870;42.528;26.740;2022-07-24T03:28:49;99621.41;;;27.35;44.43
60019;BME280;45870;42.528;26.740;2022-07-24T03:31:14;99625.38;;;27.98;43.29
60019;BME280;45870;42.528;26.740;2022-07-24T03:33:40;99622.28;;;28.39;41.15
60019;BME280;45870;42.528;26.740;2022-07-24T03:36:06;99603.06;;;28.62;40.07
60019;BME280;45870;42.528;26.740;2022-07-24T03:38:33;99627.88;;;28.27;41.13
60019;BME280;45870;42.528;26.740;2022-07-24T03:40:59;99627.56;;;29.66;38.77
60019;BME280;45870;42.528;26.740;2022-07-24T03:43:26;99630.81;;;30.41;37.43
60019;BME280;45870;42.528;26.740;2022-07-24T03:45:52;99634.53;;;30.30;36.63
60019;BME280;45870;42.528;26.740;2022-07-24T03:48:17;99628.13;;;31.09;36.08
60019;BME280;45870;42.528;26.740;2022-07-24T03:50:44;99630.75;;;32.00;33.59
60019;BME280;45870;42.528;26.740;2022-07-24T03:53:09;99626.56;;;32.47;33.37
60019;BME280;45870;42.528;26.740;2022-07-24T03:55:35;99628.50;;;32.09;34.26
60019;BME280;45870;42.528;26.740;2022-07-24T03:58:01;99625.09;;;33.37;32.10
60019;BME280;45870;42.528;26.740;2022-07-24T04:00:27;99625.41;;;34.63;29.28
60019;BME280;45870;42.528;26.740;2022-07-24T04:02:53;99626.28;;;35.05;28.81
60019;BME280;45870;42.528;26.740;2022-07-24T04:05:18;99631.81;;;34.63;29.23
60019;BME280;45870;42.528;26.740;2022-07-24T04:07:44;99632.94;;;33.69;31.01
60019;BME280;45870;42.528;26.740;2022-07-24T04:10:10;99626.28;;;33.36;32.11
60019;BME280;45870;42.528;26.740;2022-07-24T04:12:37;99635.47;;;33.91;31.77
60019;BME280;45870;42.528;26.740;2022-07-24T04:15:03;99644.75;;;34.02;31.13
60019;BME280;45870;42.528;26.740;2022-07-24T04:17:29;99645.94;;;35.76;28.37
60019;BME280;45870;42.528;26.740;2022-07-24T04:19:56;99643.56;;;35.43;29.14
60019;BME280;45870;42.528;26.740;2022-07-24T04:22:21;99486.44;;;34.90;28.62
60019;BME280;45870;42.528;26.740;2022-07-24T04:24:47;99645.41;;;36.27;28.23
60019;BME280;45870;42.528;26.740;2022-07-24T04:27:13;99636.31;;;35.77;28.87
60019;BME280;45870;42.528;26.740;2022-07-24T04:29:38;99641.56;;;36.80;27.85
60019;BME280;45870;42.528;26.740;2022-07-24T04:32:04;99639.47;;;37.42;26.92
60019;BME280;45870;42.528;26.740;2022-07-24T04:34:30;99634.25;;;37.41;25.84
60019;BME280;45870;42.528;26.740;2022-07-24T04:36:56;99637.19;;;36.68;25.71
60019;BME280;45870;42.528;26.740;2022-07-24T04:39:21;99639.56;;;37.76;24.46
60019;BME280;45870;42.528;26.740;2022-07-24T04:41:47;99643.59;;;37.79;25.04
60019;BME280;45870;42.528;26.740;2022-07-24T04:44:13;99519.19;;;34.19;28.97
60019;BME280;45870;42.528;26.740;2022-07-24T04:46:38;99643.56;;;35.61;29.17
60019;BME280;45870;42.528;26.740;2022-07-24T04:49:04;99640.69;;;35.96;28.22
60019;BME280;45870;42.528;26.740;2022-07-24T04:51:30;99627.91;;;35.70;29.22
60019;BME280;45870;42.528;26.740;2022-07-24T04:53:55;99650.69;;;34.94;29.54
60019;BME280;45870;42.528;26.740;2022-07-24T04:56:21;99649.13;;;34.93;29.62
60019;BME280;45870;42.528;26.740;2022-07-24T04:58:47;99643.56;;;33.49;31.54
60019;BME280;45870;42.528;26.740;2022-07-24T05:01:13;99515.63;;;34.46;28.68
60019;BME280;45870;42.528;26.740;2022-07-24T05:03:40;99643.56;;;36.79;26.80
60019;BME280;45870;42.528;26.740;2022-07-24T05:06:06;99651.16;;;38.23;25.03
60019;BME280;45870;42.528;26.740;2022-07-24T05:08:32;99638.97;;;39.17;22.44
60019;BME280;45870;42.528;26.740;2022-07-24T05:10:57;99606.78;;;38.87;23.14
60019;BME280;45870;42.528;26.740;2022-07-24T05:13:23;99652.09;;;39.04;22.20
60019;BME280;45870;42.528;26.740;2022-07-24T05:15:49;99643.53;;;38.20;22.00
60019;BME280;45870;42.528;26.740;2022-07-24T05:18:15;99647.09;;;36.90;24.17
60019;BME280;45870;42.528;26.740;2022-07-24T05:20:41;99643.56;;;35.43;25.50
60019;BME280;45870;42.528;26.740;2022-07-24T05:23:07;99648.94;;;37.18;24.61
60019;BME280;45870;42.528;26.740;2022-07-24T05:25:33;99647.31;;;37.21;23.85
60019;BME280;45870;42.528;26.740;2022-07-24T05:27:59;99644.16;;;36.32;24.80
60019;BME280;45870;42.528;26.740;2022-07-24T05:30:25;99604.88;;;37.83;23.32
60019;BME280;45870;42.528;26.740;2022-07-24T05:32:50;99608.28;;;38.05;23.37
60019;BME280;45870;42.528;26.740;2022-07-24T05:35:16;99644.13;;;40.34;20.15
60019;BME280;45870;42.528;26.740;2022-07-24T05:37:42;99645.81;;;39.19;21.32
60019;BME280;45870;42.528;26.740;2022-07-24T05:40:09;99639.94;;;35.53;26.47
60019;BME280;45870;42.528;26.740;2022-07-24T05:42:35;99621.22;;;37.61;23.49
60019;BME280;45870;42.528;26.740;2022-07-24T05:45:01;99618.66;;;34.95;27.45
60019;BME280;45870;42.528;26.740;2022-07-24T05:47:26;99639.72;;;34.40;28.82
60019;BME280;45870;42.528;26.740;2022-07-24T05:49:52;99635.13;;;35.25;26.90
60019;BME280;45870;42.528;26.740;2022-07-24T05:52:18;99637.31;;;34.42;28.83
60019;BME280;45870;42.528;26.740;2022-07-24T05:54:44;99639.31;;;34.41;29.18
60019;BME280;45870;42.528;26.740;2022-07-24T05:57:10;99638.84;;;34.22;29.74
60019;BME280;45870;42.528;26.740;2022-07-24T05:59:37;99604.06;;;32.70;32.59
60019;BME280;45870;42.528;26.740;2022-07-24T06:02:03;99634.13;;;37.99;23.79
60019;BME280;45870;42.528;26.740;2022-07-24T06:04:30;99639.69;;;38.67;23.95
60019;BME280;45870;42.528;26.740;2022-07-24T06:06:56;99649.44;;;41.04;20.19
60019;BME280;45870;42.528;26.740;2022-07-24T06:09:22;99627.50;;;36.80;25.06
60019;BME280;45870;42.528;26.740;2022-07-24T06:11:48;99636.59;;;40.05;21.54
60019;BME280;45870;42.528;26.740;2022-07-24T06:14:13;99493.88;;;39.11;20.80
60019;BME280;45870;42.528;26.740;2022-07-24T06:16:39;99644.31;;;41.15;20.46
60019;BME280;45870;42.528;26.740;2022-07-24T06:19:05;99632.13;;;37.56;23.03
60019;BME280;45870;42.528;26.740;2022-07-24T06:21:30;99632.19;;;37.89;23.07
60019;BME280;45870;42.528;26.740;2022-07-24T06:23:57;99626.06;;;37.09;23.54
60019;BME280;45870;42.528;26.740;2022-07-24T06:26:22;99607.41;;;38.45;22.90
60019;BME280;45870;42.528;26.740;2022-07-24T06:28:48;99625.97;;;39.23;21.77
60019;BME280;45870;42.528;26.740;2022-07-24T06:31:14;99626.72;;;37.27;24.16
60019;BME280;45870;42.528;26.740;2022-07-24T06:33:39;99585.88;;;39.78;21.09
60019;BME280;45870;42.528;26.740;2022-07-24T06:36:06;99620.53;;;38.25;22.62
60019;BME280;45870;42.528;26.740;2022-07-24T06:38:32;99622.25;;;39.29;21.14
60019;BME280;45870;42.528;26.740;2022-07-24T06:40:58;99620.56;;;40.21;21.91
60019;BME280;45870;42.528;26.740;2022-07-24T06:43:23;99608.81;;;42.17;18.66
60019;BME280;45870;42.528;26.740;2022-07-24T06:45:49;99620.47;;;39.39;21.42
60019;BME280;45870;42.528;26.740;2022-07-24T06:48:15;99624.84;;;41.33;19.23
60019;BME280;45870;42.528;26.740;2022-07-24T06:50:41;99619.66;;;41.48;19.74
60019;BME280;45870;42.528;26.740;2022-07-24T06:53:06;99606.84;;;40.20;20.46
60019;BME280;45870;42.528;26.740;2022-07-24T06:55:33;99607.44;;;38.99;21.52
60019;BME280;45870;42.528;26.740;2022-07-24T06:57:58;99592.34;;;38.82;22.58
60019;BME280;45870;42.528;26.740;2022-07-24T07:00:24;99604.38;;;39.59;21.74
60019;BME280;45870;42.528;26.740;2022-07-24T07:02:50;99587.81;;;40.76;19.90
60019;BME280;45870;42.528;26.740;2022-07-24T07:05:15;99596.97;;;41.93;19.37
60019;BME280;45870;42.528;26.740;2022-07-24T07:07:42;99600.09;;;42.11;19.71
60019;BME280;45870;42.528;26.740;2022-07-24T07:10:09;99601.28;;;39.30;20.99
60019;BME280;45870;42.528;26.740;2022-07-24T07:12:35;99598.06;;;38.75;23.52
60019;BME280;45870;42.528;26.740;2022-07-24T07:15:03;99581.59;;;39.70;20.90
60019;BME280;45870;42.528;26.740;2022-07-24T07:17:29;99591.53;;;42.40;19.00
60019;BME280;45870;42.528;26.740;2022-07-24T07:19:55;99586.97;;;41.11;20.34
60019;BME280;45870;42.528;26.740;2022-07-24T07:22:20;99588.16;;;43.08;16.90
60019;BME280;45870;42.528;26.740;2022-07-24T07:24:46;99589.38;;;41.13;19.09
60019;BME280;45870;42.528;26.740;2022-07-24T07:27:12;99584.03;;;41.92;17.92
60019;BME280;45870;42.528;26.740;2022-07-24T07:29:38;99571.63;;;43.28;17.45
60019;BME280;45870;42.528;26.740;2022-07-24T07:32:04;99564.72;;;41.58;18.07
60019;BME280;45870;42.528;26.740;2022-07-24T07:34:30;99575.41;;;41.38;19.25
60019;BME280;45870;42.528;26.740;2022-07-24T07:36:56;99569.03;;;41.02;18.39
60019;BME280;45870;42.528;26.740;2022-07-24T07:39:21;99570.31;;;42.03;17.20
60019;BME280;45870;42.528;26.740;2022-07-24T07:41:47;99570.06;;;42.26;17.26
60019;BME280;45870;42.528;26.740;2022-07-24T07:44:13;99569.56;;;40.61;18.62
60019;BME280;45870;42.528;26.740;2022-07-24T07:46:40;99556.25;;;42.00;17.57
60019;BME280;45870;42.528;26.740;2022-07-24T07:49:05;99561.13;;;40.41;19.30
60019;BME280;45870;42.528;26.740;2022-07-24T07:51:31;99554.16;;;39.90;19.22
60019;BME280;45870;42.528;26.740;2022-07-24T07:53:57;99551.31;;;40.46;19.60
60019;BME280;45870;42.528;26.740;2022-07-24T07:56:23;99549.66;;;39.92;18.94
60019;BME280;45870;42.528;26.740;2022-07-24T07:58:48;99537.75;;;39.62;20.20
60019;BME280;45870;42.528;26.740;2022-07-24T08:01:14;99546.31;;;41.50;17.91
60019;BME280;45870;42.528;26.740;2022-07-24T08:03:40;99545.47;;;42.61;16.07
60019;BME280;45870;42.528;26.740;2022-07-24T08:06:06;99530.69;;;40.81;18.28
60019;BME280;45870;42.528;26.740;2022-07-24T08:08:32;99543.78;;;42.10;16.97
60019;BME280;45870;42.528;26.740;2022-07-24T08:10:58;99533.59;;;39.66;19.70
60019;BME280;45870;42.528;26.740;2022-07-24T08:13:23;99547.94;;;41.64;17.83
60019;BME280;45870;42.528;26.740;2022-07-24T08:15:49;99540.22;;;42.47;16.16
60019;BME280;45870;42.528;26.740;2022-07-24T08:18:15;99538.31;;;41.61;17.33
60019;BME280;45870;42.528;26.740;2022-07-24T08:20:41;99528.19;;;41.48;18.47
60019;BME280;45870;42.528;26.740;2022-07-24T08:23:09;99535.69;;;41.54;17.64
60019;BME280;45870;42.528;26.740;2022-07-24T08:25:35;99532.75;;;41.58;17.32
60019;BME280;45870;42.528;26.740;2022-07-24T08:28:01;99537.03;;;40.69;18.08
60019;BME280;45870;42.528;26.740;2022-07-24T08:30:26;99532.78;;;41.25;17.44
60019;BME280;45870;42.528;26.740;2022-07-24T08:32:53;99534.22;;;41.17;17.77
60019;BME280;45870;42.528;26.740;2022-07-24T08:35:18;99535.38;;;41.04;17.92
60019;BME280;45870;42.528;26.740;2022-07-24T08:37:46;99534.81;;;41.25;18.25
60019;BME280;45870;42.528;26.740;2022-07-24T08:40:12;99530.81;;;42.63;16.61
60019;BME280;45870;42.528;26.740;2022-07-24T08:42:41;99530.25;;;41.15;17.45
60019;BME280;45870;42.528;26.740;2022-07-24T08:45:08;99531.50;;;42.29;17.05
60019;BME280;45870;42.528;26.740;2022-07-24T08:47:34;99532.75;;;43.25;15.26
60019;BME280;45870;42.528;26.740;2022-07-24T08:50:02;99530.22;;;40.14;18.42
60019;BME280;45870;42.528;26.740;2022-07-24T08:52:28;99522.72;;;42.23;17.84
60019;BME280;45870;42.528;26.740;2022-07-24T08:54:54;99521.59;;;42.21;17.52
60019;BME280;45870;42.528;26.740;2022-07-24T08:57:21;99518.38;;;43.20;15.53
60019;BME280;45870;42.528;26.740;2022-07-24T08:59:48;99522.06;;;42.45;16.09
60019;BME280;45870;42.528;26.740;2022-07-24T09:02:16;99519.56;;;40.22;18.94
60019;BME280;45870;42.528;26.740;2022-07-24T09:04:46;99490.59;;;39.78;19.28
60019;BME280;45870;42.528;26.740;2022-07-24T09:07:20;99505.53;;;41.60;17.97
60019;BME280;45870;42.528;26.740;2022-07-24T09:10:09;99481.69;;;43.00;15.53
60019;BME280;45870;42.528;26.740;2022-07-24T09:12:41;99504.31;;;41.90;17.33
60019;BME280;45870;42.528;26.740;2022-07-24T09:15:18;99506.03;;;41.71;16.75
60019;BME280;45870;42.528;26.740;2022-07-24T09:17:53;99503.97;;;42.01;16.17
60019;BME280;45870;42.528;26.740;2022-07-24T09:20:20;99498.69;;;42.78;15.92
60019;BME280;45870;42.528;26.740;2022-07-24T09:22:47;99497.13;;;41.57;17.41
60019;BME280;45870;42.528;26.740;2022-07-24T09:25:22;99506.34;;;41.90;17.55
60019;BME280;45870;42.528;26.740;2022-07-24T09:27:54;99495.72;;;42.44;17.17
60019;BME280;45870;42.528;26.740;2022-07-24T09:35:47;99485.06;;;42.23;17.23
60019;BME280;45870;42.528;26.740;2022-07-24T09:38:20;99484.56;;;43.78;15.92
60019;BME280;45870;42.528;26.740;2022-07-24T09:40:50;99485.69;;;42.02;17.82
60019;BME280;45870;42.528;26.740;2022-07-24T09:43:33;99475.97;;;42.53;16.58
60019;BME280;45870;42.528;26.740;2022-07-24T09:46:03;99491.97;;;42.72;15.89
60019;BME280;45870;42.528;26.740;2022-07-24T09:48:36;99484.66;;;41.96;17.03
60019;BME280;45870;42.528;26.740;2022-07-24T09:51:10;99474.44;;;41.44;17.54
60019;BME280;45870;42.528;26.740;2022-07-24T09:53:38;99478.75;;;41.04;18.08
60019;BME280;45870;42.528;26.740;2022-07-24T09:56:13;99480.66;;;42.22;16.43
60019;BME280;45870;42.528;26.740;2022-07-24T10:01:15;99478.09;;;44.30;15.32
60019;BME280;45870;42.528;26.740;2022-07-24T10:03:43;99451.13;;;43.60;15.40
60019;BME280;45870;42.528;26.740;2022-07-24T10:06:13;99471.50;;;44.51;15.13
60019;BME280;45870;42.528;26.740;2022-07-24T10:08:41;99462.03;;;43.62;15.40
60019;BME280;45870;42.528;26.740;2022-07-24T10:11:09;99468.13;;;41.08;18.23
60019;BME280;45870;42.528;26.740;2022-07-24T10:13:35;99452.13;;;41.01;17.90
60019;BME280;45870;42.528;26.740;2022-07-24T10:18:56;99456.88;;;43.48;16.13
60019;BME280;45870;42.528;26.740;2022-07-24T10:21:27;99451.88;;;43.52;15.46
60019;BME280;45870;42.528;26.740;2022-07-24T10:26:33;99451.97;;;43.92;16.09
60019;BME280;45870;42.528;26.740;2022-07-24T10:29:21;99450.84;;;43.89;14.97
60019;BME280;45870;42.528;26.740;2022-07-24T10:31:55;99441.78;;;42.82;16.12
60019;BME280;45870;42.528;26.740;2022-07-24T10:34:36;99441.81;;;42.44;17.02
60019;BME280;45870;42.528;26.740;2022-07-24T10:42:08;99449.31;;;44.68;14.27
60019;BME280;45870;42.528;26.740;2022-07-24T10:44:34;99387.91;;;44.18;14.59
60019;BME280;45870;42.528;26.740;2022-07-24T10:47:05;99436.53;;;45.09;14.76
60019;BME280;45870;42.528;26.740;2022-07-24T10:49:45;99422.59;;;45.56;14.14
60019;BME280;45870;42.528;26.740;2022-07-24T10:52:22;99414.84;;;45.48;14.40
60019;BME280;45870;42.528;26.740;2022-07-24T10:58:03;99414.38;;;43.22;15.83
60019;BME280;45870;42.528;26.740;2022-07-24T11:00:37;99412.47;;;43.94;15.52
60019;BME280;45870;42.528;26.740;2022-07-24T11:03:07;99329.56;;;44.71;14.46
60019;BME280;45870;42.528;26.740;2022-07-24T11:05:38;99367.78;;;42.51;16.01
60019;BME280;45870;42.528;26.740;2022-07-24T11:08:25;99397.25;;;40.18;17.92
60019;BME280;45870;42.528;26.740;2022-07-24T11:10:58;99395.28;;;42.42;17.19
60019;BME280;45870;42.528;26.740;2022-07-24T11:21:33;99378.22;;;40.67;18.34
60019;BME280;45870;42.528;26.740;2022-07-24T11:31:51;99335.56;;;43.97;14.42
60019;BME280;45870;42.528;26.740;2022-07-24T11:34:18;99367.84;;;45.25;14.58
60019;BME280;45870;42.528;26.740;2022-07-24T11:36:48;99350.44;;;44.10;14.58
60019;BME280;45870;42.528;26.740;2022-07-24T11:39:15;99361.56;;;43.34;16.07
60019;BME280;45870;42.528;26.740;2022-07-24T11:41:49;99364.75;;;43.14;16.67
60019;BME280;45870;42.528;26.740;2022-07-24T11:44:23;99308.94;;;44.22;16.20
60019;BME280;45870;42.528;26.740;2022-07-24T11:46:50;99353.66;;;43.82;14.79
60019;BME280;45870;42.528;26.740;2022-07-24T11:49:16;99312.38;;;43.15;16.43
60019;BME280;45870;42.528;26.740;2022-07-24T11:51:46;99350.75;;;44.61;13.71
60019;BME280;45870;42.528;26.740;2022-07-24T11:54:14;99336.03;;;43.65;14.08
60019;BME280;45870;42.528;26.740;2022-07-24T11:56:41;99334.25;;;45.20;13.37
60019;BME280;45870;42.528;26.740;2022-07-24T11:59:30;99308.59;;;44.20;14.24
60019;BME280;45870;42.528;26.740;2022-07-24T12:02:05;99323.00;;;43.24;15.54
60019;BME280;45870;42.528;26.740;2022-07-24T12:04:32;99314.53;;;44.04;15.00
60019;BME280;45870;42.528;26.740;2022-07-24T12:06:59;99312.38;;;42.25;15.51
60019;BME280;45870;42.528;26.740;2022-07-24T12:09:26;99318.09;;;44.35;14.89
60019;BME280;45870;42.528;26.740;2022-07-24T12:11:52;99307.22;;;44.97;14.17
60019;BME280;45870;42.528;26.740;2022-07-24T12:14:19;99304.00;;;45.83;14.22
60019;BME280;45870;42.528;26.740;2022-07-24T12:16:54;99306.91;;;43.83;14.61
60019;BME280;45870;42.528;26.740;2022-07-24T12:19:22;99301.06;;;44.62;14.50
60019;BME280;45870;42.528;26.740;2022-07-24T12:21:52;99302.25;;;42.71;14.45
60019;BME280;45870;42.528;26.740;2022-07-24T12:24:19;99295.78;;;43.75;14.19
60019;BME280;45870;42.528;26.740;2022-07-24T12:26:56;99291.88;;;44.86;13.53
60019;BME280;45870;42.528;26.740;2022-07-24T12:29:24;99294.16;;;46.16;13.29
60019;BME280;45870;42.528;26.740;2022-07-24T12:32:14;99275.91;;;44.97;14.13
60019;BME280;45870;42.528;26.740;2022-07-24T12:34:45;99288.94;;;43.55;15.00
60019;BME280;45870;42.528;26.740;2022-07-24T12:37:20;99280.78;;;44.24;13.96
60019;BME280;45870;42.528;26.740;2022-07-24T12:39:47;99284.41;;;45.66;12.31
60019;BME280;45870;42.528;26.740;2022-07-24T12:42:13;99282.78;;;47.08;11.54
60019;BME280;45870;42.528;26.740;2022-07-24T12:44:40;99281.69;;;46.05;12.30
60019;BME280;45870;42.528;26.740;2022-07-24T12:47:10;99258.97;;;46.58;11.14
60019;BME280;45870;42.528;26.740;2022-07-24T12:49:42;99262.78;;;45.84;12.30
60019;BME280;45870;42.528;26.740;2022-07-24T12:52:23;99262.69;;;46.02;12.64
60019;BME280;45870;42.528;26.740;2022-07-24T12:54:50;99262.44;;;46.62;11.44
60019;BME280;45870;42.528;26.740;2022-07-24T12:57:20;99265.28;;;47.65;11.39
60019;BME280;45870;42.528;26.740;2022-07-24T12:59:48;99257.38;;;46.57;12.69
60019;BME280;45870;42.528;26.740;2022-07-24T13:02:22;99263.69;;;48.33;11.85
60019;BME280;45870;42.528;26.740;2022-07-24T13:04:54;99248.19;;;49.48;11.00
60019;BME280;45870;42.528;26.740;2022-07-24T13:07:23;99246.56;;;47.98;10.76
60019;BME280;45870;42.528;26.740;2022-07-24T13:09:50;99254.53;;;50.00;11.35
60019;BME280;45870;42.528;26.740;2022-07-24T13:12:17;99244.34;;;49.57;11.18
60019;BME280;45870;42.528;26.740;2022-07-24T13:14:44;99242.31;;;50.92;8.94
60019;BME280;45870;42.528;26.740;2022-07-24T13:17:13;99229.84;;;45.50;12.33
60019;BME280;45870;42.528;26.740;2022-07-24T13:19:48;99236.81;;;46.67;11.46
60019;BME280;45870;42.528;26.740;2022-07-24T13:22:14;99238.72;;;47.00;11.40
60019;BME280;45870;42.528;26.740;2022-07-24T13:24:40;99226.63;;;45.90;12.88
60019;BME280;45870;42.528;26.740;2022-07-24T13:27:08;99228.41;;;46.49;12.10
60019;BME280;45870;42.528;26.740;2022-07-24T13:29:34;99227.16;;;46.03;12.80